Bismarck, IL (61814)

7:19 PM CST on November 23, 2014 (GMT -0600)
Danville | Change Station
CLOSE
Current Station
Airport
Location: Danville,
Elevation: 696 ft
Nearby Weather Stations

Elev 696 ft 40.20 °N, 87.59 °W | Updated 24 minutes ago

Rain
Rain
50 °F
Feels Like 50 °F
N
8
Wind Variable Wind from ESE

Today
High -- | Low -- °F
--% Chance of Precip.
Yesterday
High -- | Low -- °F
Precip. -- in
6:45 AM 4:28 PM
Waxing Crescent, 3% visible
Pressure 29.27 in
Visibility 5.0 miles
Clouds Mostly Cloudy 300 ft
Overcast 700 ft
Dew Point 50 °F
Humidity 99%
Rainfall 0.96 in
Snow Depth Not available.
UV 0 out of 12
Pollen .10 out of 12
Air Quality Not available.
Flu Activity Not available.
METAR KDNV 240055Z AUTO 12007KT 5SM RA BKN003 OVC007 10/10 A2927 RMK AO2 P0009 T01020100

More Conditions Fewer Conditions

Pressure 29.27 in
Visibility 5.0 miles
Clouds Mostly Cloudy 300 ft
Overcast 700 ft
Dew Point 50 °F
Humidity 99%
Rainfall 0.96 in
Snow Depth Not available.
UV 0 out of 12
Pollen .10 out of 12
Air Quality Not available.
Flu Activity Not available.
METAR KDNV 240055Z AUTO 12007KT 5SM RA BKN003 OVC007 10/10 A2927 RMK AO2 P0009 T01020100

More Conditions Fewer Conditions

10-Day Weather Forecast

Almanac

Astronomy

Nov. 23, 2014 Rise Set
Actual Time
Civil Twilight
Nautical Twilight
Astronomical Twilight
Moon
Length of Visible Light
Length of Day
Tomorrow will be .
, % of the Moon is Illuminated

Today's Extremes

State Highs State Lows

Community

WunderPhotos

Upload Photos

1,773,234 photos uploaded!

WunderBlogs® & News

Nearby

Air Quality

  Air Quality AQ Index Pollutant
Not available.

Snow Depth

Station Depth Elevation

Earthquake Activity

City Distance Mag. Time & Date
Minimum magnitude displayed is 2.5.

Coastal Water Temperatures

Place Temperature

Nearby Weather Stations